Time;durP1;ratioP1;P1;durP2;ratioP2;P2;SDS_P1;SDS_P2;PMS_P1;PMS_P2;Temp;Humidity;BMP_temperature;BMP_pressure;BME280_temperature;BME280_humidity;BME280_pressure;Samples;Min_cycle;Max_cycle;Signal;HPM_P1;HPM_P2
2023/09/15 00:01:08;;;;;;;5.70;2.27;;;8.70;99.90;;;;;;5071227;28;20187;-67
2023/09/15 00:03:33;;;;;;;6.07;2.20;;;8.70;99.90;;;;;;5071360;28;20182;-67
2023/09/15 00:05:59;;;;;;;7.87;2.40;;;8.60;99.90;;;;;;5071213;28;20202;-67
2023/09/15 00:08:24;;;;;;;6.70;2.07;;;8.50;99.90;;;;;;5070230;28;20186;-67
2023/09/15 00:10:50;;;;;;;8.67;2.23;;;8.50;99.90;;;;;;5071194;28;20182;-67
2023/09/15 00:13:16;;;;;;;7.70;2.20;;;8.50;99.90;;;;;;5070964;28;20265;-68
2023/09/15 00:15:42;;;;;;;5.57;1.90;;;8.50;99.90;;;;;;5071062;28;20222;-67
2023/09/15 00:18:07;;;;;;;3.97;1.90;;;8.50;99.90;;;;;;5069910;28;20202;-67
2023/09/15 00:20:33;;;;;;;6.80;2.27;;;8.40;99.90;;;;;;5071155;28;20181;-67
2023/09/15 00:22:59;;;;;;;5.73;2.07;;;8.30;99.90;;;;;;5070864;28;20681;-67
2023/09/15 00:25:27;;;;;;;2.70;1.90;;;8.30;99.90;;;;;;5070661;28;20668;-67
2023/09/15 00:27:58;;;;;;;2.63;1.73;;;8.30;99.90;;;;;;5070303;28;20198;-68
2023/09/15 00:30:24;;;;;;;6.80;1.83;;;8.20;99.90;;;;;;5070539;28;20178;-68
2023/09/15 00:32:50;;;;;;;5.73;2.03;;;8.20;99.90;;;;;;5070816;28;20174;-68
2023/09/15 00:35:18;;;;;;;3.57;2.23;;;8.20;99.90;;;;;;5070527;28;20561;-67
2023/09/15 00:37:48;;;;;;;6.30;2.07;;;8.10;99.90;;;;;;5070058;28;20174;-67
2023/09/15 00:40:16;;;;;;;8.63;1.80;;;8.10;99.90;;;;;;5070528;28;20177;-67
2023/09/15 00:42:43;;;;;;;3.80;1.60;;;8.10;99.90;;;;;;5070628;28;20178;-67
2023/09/15 00:45:14;;;;;;;3.53;1.73;;;8.00;99.90;;;;;;5070237;28;20194;-67
2023/09/15 00:47:43;;;;;;;5.93;2.07;;;8.10;99.90;;;;;;5069827;28;20182;-67
2023/09/15 00:50:14;;;;;;;6.13;2.00;;;8.00;99.90;;;;;;5070028;28;20224;-67
2023/09/15 00:52:59;;;;;;;4.63;2.20;;;8.00;99.90;;;;;;5070480;28;20184;-67
2023/09/15 00:55:25;;;;;;;5.30;2.00;;;8.00;99.90;;;;;;5070327;28;21741;-67
2023/09/15 00:57:52;;;;;;;5.87;2.03;;;8.00;99.90;;;;;;5069677;28;20170;-67
2023/09/15 01:00:19;;;;;;;3.80;2.20;;;7.90;99.90;;;;;;5070149;28;20170;-67
2023/09/15 01:02:49;;;;;;;8.20;2.10;;;7.90;99.90;;;;;;5070604;28;20178;-67
2023/09/15 01:05:22;;;;;;;6.80;2.30;;;7.90;99.90;;;;;;5078558;28;20213;-68
2023/09/15 01:07:49;;;;;;;3.77;2.30;;;7.80;99.90;;;;;;5069570;28;20178;-67
2023/09/15 01:10:15;;;;;;;6.07;2.00;;;7.80;99.90;;;;;;5070123;28;20202;-67
2023/09/15 01:12:43;;;;;;;7.73;2.10;;;7.80;99.90;;;;;;5070260;28;20649;-67
2023/09/15 01:15:09;;;;;;;4.17;2.00;;;7.80;99.90;;;;;;5069826;28;20217;-67
2023/09/15 01:17:52;;;;;;;6.83;2.10;;;7.80;99.90;;;;;;5069452;28;20643;-68
2023/09/15 01:20:49;;;;;;;3.17;2.07;;;7.80;99.90;;;;;;5069944;28;20259;-67
2023/09/15 01:23:33;;;;;;;6.00;2.43;;;7.70;99.90;;;;;;5070046;28;20267;-67
2023/09/15 01:26:31;;;;;;;4.83;2.33;;;7.80;99.90;;;;;;5070115;28;20194;-67
2023/09/15 01:28:56;;;;;;;6.27;2.50;;;7.80;99.90;;;;;;5069484;28;20178;-67
2023/09/15 01:31:23;;;;;;;4.30;1.90;;;7.70;99.90;;;;;;5068509;28;20186;-67
2023/09/15 01:33:49;;;;;;;6.50;2.17;;;7.70;99.90;;;;;;5070009;28;20179;-67
2023/09/15 01:36:14;;;;;;;6.00;2.20;;;7.60;99.90;;;;;;5069863;28;20580;-67
2023/09/15 01:38:40;;;;;;;5.90;1.90;;;7.60;99.90;;;;;;5068488;28;20243;-68
2023/09/15 01:41:05;;;;;;;4.33;2.30;;;7.60;99.90;;;;;;5069713;28;20266;-67
2023/09/15 01:43:31;;;;;;;3.43;1.70;;;7.50;99.90;;;;;;5069956;28;20175;-67
2023/09/15 01:45:56;;;;;;;6.30;2.07;;;7.60;99.90;;;;;;5069742;28;20202;-67
2023/09/15 01:48:24;;;;;;;2.50;1.67;;;7.60;99.90;;;;;;5069274;28;20228;-67
2023/09/15 01:50:50;;;;;;;4.90;1.60;;;7.50;99.90;;;;;;5069533;28;20194;-67
2023/09/15 01:53:16;;;;;;;8.10;2.17;;;7.50;99.90;;;;;;5069706;28;20187;-68
2023/09/15 01:55:43;;;;;;;3.83;2.33;;;7.50;99.90;;;;;;5069840;28;20228;-68
2023/09/15 01:58:08;;;;;;;4.87;1.90;;;7.50;99.90;;;;;;5068956;28;20284;-68
2023/09/15 02:00:35;;;;;;;4.73;1.77;;;7.50;99.90;;;;;;5070706;28;20178;-68
2023/09/15 02:03:01;;;;;;;8.00;3.10;;;7.50;99.90;;;;;;5073706;28;20201;-67
2023/09/15 02:05:27;;;;;;;6.27;1.80;;;7.40;99.90;;;;;;5073299;28;20221;-68
2023/09/15 02:07:52;;;;;;;4.50;1.90;;;7.40;99.90;;;;;;5072987;28;20553;-67
2023/09/15 02:10:18;;;;;;;2.40;1.50;;;7.50;99.90;;;;;;5073299;28;20613;-68
2023/09/15 02:12:44;;;;;;;6.00;2.00;;;7.40;99.90;;;;;;5073448;28;20181;-67
2023/09/15 02:15:11;;;;;;;4.20;2.13;;;7.40;99.90;;;;;;5073044;28;20709;-68
2023/09/15 02:17:37;;;;;;;5.37;2.27;;;7.30;99.90;;;;;;5051655;28;20558;-67
2023/09/15 02:20:13;;;;;;;6.03;2.40;;;7.30;99.90;;;;;;5069425;28;20210;-67
2023/09/15 02:22:41;;;;;;;5.93;1.80;;;7.20;99.90;;;;;;5066159;28;20178;-68
2023/09/15 02:25:06;;;;;;;7.60;2.23;;;7.20;99.90;;;;;;5073093;28;20277;-67
2023/09/15 02:27:32;;;;;;;4.73;2.27;;;7.20;99.90;;;;;;5072659;28;20270;-67
2023/09/15 02:29:58;;;;;;;6.93;2.23;;;7.20;99.90;;;;;;5073096;28;20269;-67
2023/09/15 02:32:23;;;;;;;3.97;1.90;;;7.10;99.90;;;;;;5072896;28;20282;-67
2023/09/15 02:34:49;;;;;;;7.17;1.97;;;7.10;99.90;;;;;;5072907;28;20240;-67
2023/09/15 02:37:15;;;;;;;3.60;1.80;;;7.10;99.90;;;;;;5072847;28;20214;-67
2023/09/15 02:39:40;;;;;;;4.10;2.07;;;7.10;99.90;;;;;;5072178;28;20213;-67
2023/09/15 02:42:06;;;;;;;3.20;1.80;;;7.10;99.90;;;;;;5072828;28;20202;-67
2023/09/15 02:44:32;;;;;;;6.68;2.58;;;7.10;99.90;;;;;;5063779;28;20402;-67
2023/09/15 02:46:58;;;;;;;8.53;2.30;;;7.10;99.90;;;;;;5071517;28;20273;-67
2023/09/15 02:49:23;;;;;;;5.17;2.07;;;7.10;99.90;;;;;;5071894;28;20337;-66
2023/09/15 02:51:49;;;;;;;7.30;2.50;;;7.00;99.90;;;;;;5072764;28;20231;-67
2023/09/15 02:54:14;;;;;;;3.83;1.87;;;7.00;99.90;;;;;;5072415;28;20214;-67
2023/09/15 02:56:40;;;;;;;6.63;2.07;;;7.00;99.90;;;;;;5072554;28;20182;-67
2023/09/15 02:59:06;;;;;;;4.77;2.13;;;7.00;99.90;;;;;;5071746;28;20233;-66
2023/09/15 03:01:31;;;;;;;4.63;2.27;;;7.00;99.90;;;;;;5064510;28;20220;-67
2023/09/15 03:03:57;;;;;;;3.73;2.03;;;7.00;99.90;;;;;;5072460;28;20177;-67
2023/09/15 03:06:22;;;;;;;5.60;2.20;;;7.00;99.90;;;;;;5072277;28;20734;-67
2023/09/15 03:08:48;;;;;;;6.13;2.30;;;7.00;99.90;;;;;;5071733;28;20185;-66
2023/09/15 03:11:17;;;;;;;3.53;1.80;;;6.90;99.90;;;;;;5071851;28;20183;-67
2023/09/15 03:13:42;;;;;;;5.87;2.40;;;7.00;99.90;;;;;;5072284;28;20669;-67
2023/09/15 03:16:11;;;;;;;5.60;2.27;;;6.90;99.90;;;;;;5072066;28;20187;-67
2023/09/15 03:18:37;;;;;;;5.80;2.30;;;6.90;99.90;;;;;;5071304;28;20217;-67
2023/09/15 03:21:04;;;;;;;6.73;2.27;;;6.90;99.90;;;;;;5072231;28;20262;-67
2023/09/15 03:23:30;;;;;;;8.00;2.30;;;6.80;99.90;;;;;;5072049;28;20188;-66
2023/09/15 03:26:02;;;;;;;7.37;2.50;;;6.80;99.90;;;;;;5072144;28;20206;-67
2023/09/15 03:28:32;;;;;;;4.07;2.10;;;6.80;99.90;;;;;;5071110;28;20178;-66
2023/09/15 03:30:58;;;;;;;5.50;2.13;;;6.90;99.90;;;;;;5071904;28;20178;-67
2023/09/15 03:33:24;;;;;;;4.23;2.10;;;6.80;99.90;;;;;;5071787;28;20684;-66
2023/09/15 03:35:49;;;;;;;5.67;2.40;;;6.80;99.90;;;;;;5071890;28;20205;-67
2023/09/15 03:38:15;;;;;;;3.33;1.80;;;6.80;99.90;;;;;;5070928;28;20309;-66
2023/09/15 03:40:40;;;;;;;7.20;2.53;;;6.70;99.90;;;;;;5071703;28;20232;-67
2023/09/15 03:43:06;;;;;;;4.67;2.40;;;6.70;99.90;;;;;;5072008;28;20850;-67
2023/09/15 03:45:33;;;;;;;7.30;2.03;;;6.70;99.90;;;;;;5071450;28;20206;-67
2023/09/15 03:47:59;;;;;;;5.17;2.13;;;6.70;99.90;;;;;;5070913;28;20181;-67
2023/09/15 03:50:25;;;;;;;5.97;2.00;;;6.70;99.90;;;;;;5071414;28;20183;-67
2023/09/15 03:52:50;;;;;;;4.97;1.77;;;6.70;99.90;;;;;;5071531;28;20284;-67
2023/09/15 03:55:17;;;;;;;4.87;1.60;;;6.70;99.90;;;;;;5071245;28;20281;-66
2023/09/15 03:57:42;;;;;;;5.27;2.20;;;6.70;99.90;;;;;;5070760;28;20208;-67
2023/09/15 04:00:15;;;;;;;4.37;2.47;;;6.70;99.90;;;;;;5071186;28;20247;-67
2023/09/15 04:02:41;;;;;;;6.10;2.37;;;6.70;99.90;;;;;;5071370;28;20179;-67
2023/09/15 04:05:07;;;;;;;4.07;2.10;;;6.60;99.90;;;;;;5071386;28;20244;-67
2023/09/15 04:07:33;;;;;;;3.97;2.47;;;6.60;99.90;;;;;;5078830;28;20741;-67
2023/09/15 04:09:58;;;;;;;5.07;2.70;;;6.60;99.90;;;;;;5071102;28;20258;-67
2023/09/15 04:12:24;;;;;;;6.27;2.83;;;6.60;99.90;;;;;;5071209;28;20257;-67
2023/09/15 04:14:49;;;;;;;5.33;2.70;;;6.50;99.90;;;;;;5071333;28;20676;-67
2023/09/15 04:17:15;;;;;;;7.57;2.70;;;6.60;99.90;;;;;;5070767;28;20549;-67
2023/09/15 04:19:40;;;;;;;6.87;2.67;;;6.60;99.90;;;;;;5070335;28;20206;-67
2023/09/15 04:22:06;;;;;;;5.23;2.83;;;6.60;99.90;;;;;;5071011;28;20186;-67
2023/09/15 04:24:31;;;;;;;4.23;2.43;;;6.60;99.90;;;;;;5070214;28;20194;-66
2023/09/15 04:26:57;;;;;;;7.70;2.70;;;6.50;99.90;;;;;;5070973;28;20265;-67
2023/09/15 04:29:23;;;;;;;6.90;2.20;;;6.50;99.90;;;;;;5068691;28;20282;-67
2023/09/15 04:31:48;;;;;;;7.53;2.50;;;6.50;99.90;;;;;;5069627;28;20175;-67
2023/09/15 04:34:14;;;;;;;5.77;2.73;;;6.50;99.90;;;;;;5070540;28;20225;-67
2023/09/15 04:36:40;;;;;;;5.47;3.20;;;6.60;99.90;;;;;;5070747;28;20206;-67
2023/09/15 04:39:07;;;;;;;4.50;2.60;;;6.60;99.90;;;;;;5069000;28;20572;-66
2023/09/15 04:41:32;;;;;;;6.27;2.50;;;6.50;99.90;;;;;;5070560;28;20181;-67
2023/09/15 04:43:58;;;;;;;6.67;3.03;;;6.50;99.90;;;;;;5070535;28;20174;-67
2023/09/15 04:46:24;;;;;;;5.93;2.60;;;6.50;99.90;;;;;;5070297;28;20185;-67
2023/09/15 04:48:50;;;;;;;6.97;3.23;;;6.50;99.90;;;;;;5069896;28;20216;-67
2023/09/15 04:51:16;;;;;;;7.30;3.27;;;6.50;99.90;;;;;;5070418;28;20206;-66
2023/09/15 04:53:42;;;;;;;7.30;2.90;;;6.50;99.90;;;;;;5070388;28;20309;-66
2023/09/15 04:56:07;;;;;;;4.97;2.90;;;6.60;99.90;;;;;;5070679;28;20285;-66
2023/09/15 04:58:33;;;;;;;12.23;3.47;;;6.50;99.90;;;;;;5061524;28;20289;-66
2023/09/15 05:01:03;;;;;;;9.23;2.90;;;6.50;99.90;;;;;;5068686;28;20194;-66
2023/09/15 05:03:29;;;;;;;9.63;3.30;;;6.50;99.90;;;;;;5069470;28;20217;-66
2023/09/15 05:05:55;;;;;;;7.40;3.97;;;6.50;99.90;;;;;;5070347;28;20229;-66
2023/09/15 05:08:21;;;;;;;7.90;3.07;;;6.50;99.90;;;;;;5068848;28;20559;-67
2023/09/15 05:10:47;;;;;;;14.70;4.03;;;6.50;99.90;;;;;;5069359;28;20174;-66
2023/09/15 05:13:14;;;;;;;11.93;3.20;;;6.50;99.90;;;;;;5069366;28;20273;-67
2023/09/15 05:15:39;;;;;;;9.73;3.27;;;6.40;99.90;;;;;;5069370;28;20225;-67
2023/09/15 05:18:05;;;;;;;8.03;2.83;;;6.40;99.90;;;;;;5068634;28;20291;-67
2023/09/15 05:20:30;;;;;;;14.90;3.47;;;6.40;99.90;;;;;;5069363;28;20205;-67
2023/09/15 05:22:56;;;;;;;7.37;3.23;;;6.40;99.90;;;;;;5069558;28;20185;-67
2023/09/15 05:25:21;;;;;;;6.90;2.93;;;6.40;99.90;;;;;;5078219;28;20213;-67
2023/09/15 05:27:47;;;;;;;6.47;3.10;;;6.50;99.90;;;;;;5080150;28;20226;-67
2023/09/15 05:30:15;;;;;;;4.30;2.33;;;6.60;99.90;;;;;;5089501;28;20197;-67
2023/09/15 05:32:40;;;;;;;5.00;2.67;;;6.70;99.90;;;;;;5076833;28;20261;-67
2023/09/15 05:35:09;;;;;;;10.73;3.00;;;6.70;99.90;;;;;;5086521;28;20618;-67
2023/09/15 05:37:35;;;;;;;8.03;3.10;;;6.70;99.90;;;;;;5084782;28;20181;-66
2023/09/15 05:40:00;;;;;;;6.23;3.13;;;6.80;99.90;;;;;;5093577;28;20244;-67
2023/09/15 05:42:26;;;;;;;13.63;3.23;;;6.90;99.90;;;;;;5085352;28;20204;-66
2023/09/15 05:44:54;;;;;;;9.37;3.23;;;6.90;99.90;;;;;;5093822;28;20204;-68
2023/09/15 05:47:23;;;;;;;7.53;3.47;;;7.00;99.90;;;;;;5093298;28;20170;-68
2023/09/15 05:49:49;;;;;;;9.60;3.10;;;7.10;99.90;;;;;;5084676;28;20261;-67
2023/09/15 05:52:14;;;;;;;7.47;2.93;;;7.10;99.90;;;;;;5093332;28;20656;-67
2023/09/15 05:54:40;;;;;;;7.87;3.00;;;7.10;99.90;;;;;;5084987;28;20197;-68
2023/09/15 05:57:05;;;;;;;5.67;2.47;;;7.10;99.90;;;;;;5093433;28;20189;-67
2023/09/15 05:59:31;;;;;;;6.83;2.80;;;7.10;99.90;;;;;;5084167;28;20212;-68
2023/09/15 06:01:57;;;;;;;5.27;2.80;;;7.20;99.90;;;;;;5078064;28;20174;-67
2023/09/15 06:04:22;;;;;;;4.83;2.67;;;7.20;99.90;;;;;;5091642;28;20332;-67
2023/09/15 06:06:48;;;;;;;6.30;2.63;;;7.30;99.90;;;;;;5084776;28;20663;-68
2023/09/15 06:09:14;;;;;;;5.77;3.17;;;7.40;99.90;;;;;;5092419;28;20315;-67
2023/09/15 06:11:40;;;;;;;8.43;3.27;;;7.40;99.90;;;;;;5089097;28;20198;-67
2023/09/15 06:14:06;;;;;;;5.53;3.07;;;7.60;99.90;;;;;;5080818;28;20204;-67
2023/09/15 06:16:36;;;;;;;5.33;3.20;;;7.80;99.90;;;;;;5092724;28;20184;-68
2023/09/15 06:19:02;;;;;;;7.77;3.30;;;7.90;99.90;;;;;;5076441;28;20210;-68
2023/09/15 06:21:28;;;;;;;6.60;2.67;;;8.10;99.90;;;;;;5083636;28;20182;-68
2023/09/15 06:23:53;;;;;;;8.63;3.00;;;8.20;99.90;;;;;;5091690;28;20543;-68
2023/09/15 06:26:19;;;;;;;7.53;2.57;;;8.40;99.90;;;;;;5084488;28;20186;-67
2023/09/15 06:28:44;;;;;;;8.93;3.20;;;8.50;99.90;;;;;;5092580;28;20221;-68
2023/09/15 06:31:10;;;;;;;6.73;2.70;;;8.70;99.90;;;;;;5092548;28;20243;-67
2023/09/15 06:33:36;;;;;;;6.07;3.30;;;9.00;99.90;;;;;;5092802;28;20186;-68
2023/09/15 06:36:01;;;;;;;10.50;3.07;;;9.40;99.90;;;;;;5093054;28;20197;-67
2023/09/15 06:38:27;;;;;;;3.93;2.40;;;9.50;99.90;;;;;;5083723;28;20642;-67
2023/09/15 06:40:53;;;;;;;5.07;2.73;;;9.40;99.90;;;;;;5077908;28;20182;-68
2023/09/15 06:43:19;;;;;;;8.37;2.50;;;9.40;99.90;;;;;;5082015;28;20174;-67
2023/09/15 06:45:44;;;;;;;4.53;2.33;;;9.40;99.90;;;;;;5083516;28;20202;-68
2023/09/15 06:48:10;;;;;;;6.47;2.30;;;9.60;99.90;;;;;;5082738;28;20261;-68
2023/09/15 06:50:36;;;;;;;7.07;2.57;;;9.90;99.90;;;;;;5084475;28;20196;-68
2023/09/15 06:53:01;;;;;;;12.00;2.83;;;10.30;99.90;;;;;;5077119;28;20622;-68
2023/09/15 06:55:27;;;;;;;7.00;2.90;;;10.70;99.90;;;;;;5091451;28;20305;-68
2023/09/15 06:57:52;;;;;;;10.40;3.00;;;11.00;99.90;;;;;;5083331;28;20181;-69
2023/09/15 07:00:19;;;;;;;6.10;2.43;;;11.30;99.90;;;;;;5091872;28;20241;-68
2023/09/15 07:02:44;;;;;;;6.97;2.60;;;11.30;99.90;;;;;;5083712;28;20178;-68
2023/09/15 07:05:11;;;;;;;9.67;2.83;;;11.50;99.90;;;;;;5091824;28;20201;-68
2023/09/15 07:07:36;;;;;;;10.67;2.43;;;11.80;99.90;;;;;;5091659;28;20181;-67
2023/09/15 07:10:04;;;;;;;5.80;2.50;;;11.90;99.90;;;;;;5091963;28;20445;-67
2023/09/15 07:12:29;;;;;;;5.83;2.47;;;12.20;99.90;;;;;;5092021;28;20186;-67
2023/09/15 07:14:56;;;;;;;11.90;3.50;;;12.60;99.90;;;;;;5091857;28;20201;-67
2023/09/15 07:17:22;;;;;;;5.07;2.50;;;13.10;99.90;;;;;;5083017;28;20186;-67
2023/09/15 07:19:47;;;;;;;7.20;2.40;;;13.30;99.90;;;;;;5091236;28;20279;-67
2023/09/15 07:22:13;;;;;;;4.20;2.30;;;13.70;99.90;;;;;;5091676;28;20217;-67
2023/09/15 07:24:41;;;;;;;9.67;2.27;;;14.00;99.90;;;;;;5091670;28;20189;-67
2023/09/15 07:27:10;;;;;;;6.77;2.50;;;14.30;99.90;;;;;;5082187;28;20175;-68
2023/09/15 07:29:37;;;;;;;12.80;2.40;;;14.60;99.90;;;;;;5074801;28;20240;-67
2023/09/15 07:32:03;;;;;;;10.80;2.47;;;15.00;99.90;;;;;;5091520;28;20209;-67
2023/09/15 07:34:29;;;;;;;12.67;2.70;;;15.40;99.90;;;;;;5091332;28;20753;-68
2023/09/15 07:36:55;;;;;;;9.67;2.37;;;15.80;99.90;;;;;;5091475;28;20204;-68
2023/09/15 07:39:20;;;;;;;8.53;2.27;;;16.30;99.90;;;;;;5089308;28;20206;-68
2023/09/15 07:41:46;;;;;;;6.03;2.00;;;16.60;99.90;;;;;;5083027;28;20641;-68
2023/09/15 07:44:15;;;;;;;8.13;2.40;;;17.00;99.90;;;;;;5082730;28;20198;-68
2023/09/15 07:46:40;;;;;;;4.80;1.80;;;17.50;99.90;;;;;;5091124;28;20174;-68
2023/09/15 07:49:07;;;;;;;5.03;2.03;;;17.70;99.90;;;;;;5082418;28;20204;-68
2023/09/15 07:51:33;;;;;;;6.00;2.00;;;18.00;99.90;;;;;;5088071;28;20175;-69
2023/09/15 07:53:59;;;;;;;4.23;1.40;;;18.20;99.90;;;;;;5077785;28;20189;-68
2023/09/15 07:56:24;;;;;;;6.37;1.90;;;18.70;99.90;;;;;;5091118;28;20186;-68
2023/09/15 07:58:50;;;;;;;3.90;2.00;;;18.90;99.90;;;;;;5089373;28;20190;-68
2023/09/15 08:01:16;;;;;;;3.87;1.77;;;19.30;99.90;;;;;;5090877;28;20178;-67
2023/09/15 08:03:42;;;;;;;5.80;2.00;;;19.30;99.90;;;;;;5091144;28;20170;-66
2023/09/15 08:06:08;;;;;;;4.83;1.60;;;19.50;99.90;;;;;;5074849;28;20194;-67
2023/09/15 08:08:34;;;;;;;3.80;1.80;;;19.70;99.90;;;;;;5081663;28;20202;-67
2023/09/15 08:11:00;;;;;;;8.60;2.17;;;19.90;99.90;;;;;;5090992;28;20177;-67
2023/09/15 08:13:26;;;;;;;5.93;2.10;;;20.30;99.90;;;;;;5088406;28;20190;-66
2023/09/15 08:15:52;;;;;;;5.80;1.87;;;20.70;99.90;;;;;;5084590;28;20222;-66
2023/09/15 08:18:21;;;;;;;12.17;2.07;;;21.00;99.90;;;;;;5089848;28;20213;-67
2023/09/15 08:20:47;;;;;;;4.40;2.10;;;21.40;99.90;;;;;;5082368;28;20177;-67
2023/09/15 08:23:13;;;;;;;6.53;2.43;;;21.60;99.90;;;;;;5090637;28;20177;-67
2023/09/15 08:25:39;;;;;;;7.97;2.53;;;21.80;99.90;;;;;;5090585;28;20197;-67
2023/09/15 08:28:06;;;;;;;5.00;2.10;;;22.10;99.90;;;;;;5082207;28;20190;-67
2023/09/15 08:30:33;;;;;;;8.13;2.77;;;22.30;99.90;;;;;;5089642;28;20197;-67
2023/09/15 08:32:59;;;;;;;6.07;2.23;;;22.70;99.90;;;;;;5090532;28;20229;-67
2023/09/15 08:35:26;;;;;;;6.20;2.40;;;23.30;99.90;;;;;;5081823;28;20291;-68
2023/09/15 08:37:51;;;;;;;6.37;2.20;;;23.80;99.90;;;;;;5081453;28;20168;-67
2023/09/15 08:40:19;;;;;;;5.17;2.50;;;23.90;99.90;;;;;;5081808;28;20210;-66
2023/09/15 08:42:45;;;;;;;6.20;2.37;;;24.00;99.90;;;;;;5082439;28;20170;-69
2023/09/15 08:45:11;;;;;;;9.47;2.30;;;24.30;99.90;;;;;;5090116;28;20201;-68
2023/09/15 08:47:42;;;;;;;6.67;2.70;;;24.60;99.90;;;;;;5089725;28;20193;-68
2023/09/15 08:50:09;;;;;;;4.23;2.53;;;25.00;99.90;;;;;;5082091;28;20257;-66
2023/09/15 08:52:35;;;;;;;5.20;2.43;;;25.10;99.90;;;;;;5078359;28;20174;-65
2023/09/15 08:55:02;;;;;;;7.57;2.50;;;25.30;99.90;;;;;;5085294;28;21168;-68
2023/09/15 08:57:30;;;;;;;4.83;2.40;;;25.10;99.90;;;;;;5087022;28;20251;-68
2023/09/15 08:59:57;;;;;;;6.00;2.30;;;25.60;99.90;;;;;;5084571;28;20288;-68
2023/09/15 09:02:24;;;;;;;6.50;2.77;;;25.90;99.90;;;;;;5090253;28;20214;-66
2023/09/15 09:04:50;;;;;;;6.07;2.10;;;26.40;99.90;;;;;;5089919;28;20553;-66
2023/09/15 09:07:17;;;;;;;7.47;2.67;;;26.70;99.90;;;;;;5089812;28;20258;-66
2023/09/15 09:09:44;;;;;;;12.30;2.60;;;26.00;99.90;;;;;;5089091;28;20601;-67
2023/09/15 09:12:10;;;;;;;4.80;2.47;;;26.10;99.90;;;;;;5089780;28;20593;-66
2023/09/15 09:14:36;;;;;;;8.30;2.50;;;26.40;99.90;;;;;;5077829;28;20204;-69
2023/09/15 09:17:02;;;;;;;5.13;2.77;;;26.70;99.90;;;;;;5076382;28;20270;-68
2023/09/15 09:19:39;;;;;;;7.17;2.80;;;26.70;99.90;;;;;;5078180;28;20217;-68
2023/09/15 09:22:09;;;;;;;6.17;2.30;;;26.30;99.90;;;;;;5069533;28;20198;-69
2023/09/15 09:24:36;;;;;;;6.93;2.87;;;26.50;99.90;;;;;;5076050;28;20201;-69
2023/09/15 09:27:10;;;;;;;4.10;2.30;;;26.30;99.90;;;;;;5076477;28;20177;-69
2023/09/15 09:29:37;;;;;;;6.83;3.40;;;26.10;99.90;;;;;;5060895;28;20216;-68
2023/09/15 09:32:04;;;;;;;8.27;2.80;;;24.90;99.90;;;;;;5076111;28;20212;-68
2023/09/15 09:34:29;;;;;;;6.80;3.37;;;25.30;99.90;;;;;;5086939;28;20222;-68
2023/09/15 09:36:55;;;;;;;9.80;3.10;;;25.00;99.90;;;;;;5083952;28;20679;-69
2023/09/15 09:39:21;;;;;;;10.43;2.87;;;25.50;99.90;;;;;;5078825;28;20256;-69
2023/09/15 09:41:47;;;;;;;6.13;3.30;;;26.00;99.90;;;;;;5074367;28;20679;-69
2023/09/15 09:44:13;;;;;;;3.93;2.83;;;26.50;99.90;;;;;;5072537;28;20226;-69
2023/09/15 09:46:41;;;;;;;4.00;2.63;;;26.40;99.90;;;;;;5073052;28;20239;-67
2023/09/15 09:49:08;;;;;;;5.07;3.33;;;26.50;99.90;;;;;;5088894;28;20166;-67
2023/09/15 09:51:38;;;;;;;7.20;3.03;;;26.40;99.90;;;;;;5077758;28;20288;-67
2023/09/15 09:54:06;;;;;;;5.27;3.20;;;26.60;99.90;;;;;;5077525;28;20638;-68
2023/09/15 09:56:32;;;;;;;8.70;2.77;;;26.90;99.90;;;;;;5077372;28;20263;-67
2023/09/15 09:59:10;;;;;;;7.70;2.97;;;27.60;99.90;;;;;;5068588;28;20198;-67
2023/09/15 10:01:36;;;;;;;5.30;3.00;;;27.40;99.90;;;;;;5072359;28;20922;-68
2023/09/15 10:04:05;;;;;;;10.13;3.37;;;27.10;99.90;;;;;;5080927;28;20270;-68
2023/09/15 10:06:33;;;;;;;5.43;3.20;;;27.00;99.90;;;;;;5085324;28;20587;-68
2023/09/15 10:08:59;;;;;;;6.23;3.30;;;27.20;99.90;;;;;;5076819;28;20213;-68
2023/09/15 10:11:26;;;;;;;6.87;2.40;;;27.60;99.90;;;;;;5087594;28;20603;-68
2023/09/15 10:13:53;;;;;;;4.93;3.10;;;28.00;99.90;;;;;;5080787;28;20182;-68
2023/09/15 10:16:19;;;;;;;5.70;3.07;;;27.70;99.90;;;;;;5087877;28;20614;-68
2023/09/15 10:18:46;;;;;;;4.97;2.80;;;27.50;99.90;;;;;;5072831;28;20245;-68
2023/09/15 10:21:12;;;;;;;4.97;2.73;;;27.70;99.90;;;;;;5080892;28;20548;-69
2023/09/15 10:23:39;;;;;;;6.97;3.20;;;27.90;99.90;;;;;;5084670;28;20174;-67
2023/09/15 10:26:09;;;;;;;5.17;2.80;;;27.60;99.90;;;;;;5084454;28;20233;-68
2023/09/15 10:28:34;;;;;;;5.00;2.97;;;26.60;99.90;;;;;;5075317;28;20184;-68
2023/09/15 10:31:00;;;;;;;4.73;2.80;;;26.60;99.90;;;;;;5083036;28;20192;-68
2023/09/15 10:33:27;;;;;;;6.03;2.83;;;27.00;99.90;;;;;;5084122;28;20214;-67
2023/09/15 10:35:59;;;;;;;8.57;2.70;;;27.30;99.90;;;;;;5078473;28;20207;-68
2023/09/15 10:38:29;;;;;;;4.33;2.83;;;28.00;99.90;;;;;;5081607;28;20214;-72
2023/09/15 10:40:56;;;;;;;5.27;2.73;;;28.30;99.90;;;;;;5084252;28;20898;-70
2023/09/15 10:43:22;;;;;;;7.77;2.57;;;28.30;99.90;;;;;;5092914;28;20233;-68
2023/09/15 10:46:06;;;;;;;6.43;2.73;;;28.00;99.90;;;;;;5092354;28;20219;-67
2023/09/15 10:48:43;;;;;;;4.00;2.72;;;28.20;99.90;;;;;;5082717;28;20410;-67
2023/09/15 10:51:10;;;;;;;5.47;2.97;;;28.40;99.90;;;;;;5084505;28;20177;-67
2023/09/15 10:53:49;;;;;;;5.10;2.47;;;28.00;99.90;;;;;;5088810;28;20709;-68
2023/09/15 10:56:17;;;;;;;5.73;2.80;;;28.20;99.90;;;;;;5079506;28;20198;-67
2023/09/15 10:58:46;;;;;;;3.30;2.37;;;28.20;99.90;;;;;;5071278;28;20204;-67
2023/09/15 11:01:14;;;;;;;5.23;2.63;;;27.80;99.90;;;;;;5071738;28;20203;-69
2023/09/15 11:03:41;;;;;;;8.20;2.83;;;27.40;99.90;;;;;;5072012;28;20171;-68
2023/09/15 11:06:10;;;;;;;8.93;2.80;;;27.00;99.90;;;;;;5071583;28;20214;-67
2023/09/15 11:08:36;;;;;;;8.23;3.20;;;26.70;99.90;;;;;;5070795;28;20219;-67
2023/09/15 11:11:10;;;;;;;6.27;3.00;;;26.00;99.90;;;;;;5071734;28;20209;-68
2023/09/15 11:13:37;;;;;;;7.03;3.43;;;25.70;99.90;;;;;;5070389;28;20175;-68
2023/09/15 11:16:03;;;;;;;9.27;4.57;;;25.70;99.90;;;;;;5071309;28;20613;-68
2023/09/15 11:18:35;;;;;;;6.60;2.83;;;26.00;99.90;;;;;;5070638;28;20238;-67
2023/09/15 11:21:01;;;;;;;5.17;2.67;;;26.10;99.90;;;;;;5071671;28;20548;-68
2023/09/15 11:23:28;;;;;;;8.40;2.83;;;26.10;99.90;;;;;;5079647;28;20171;-68
2023/09/15 11:26:08;;;;;;;4.53;2.57;;;26.20;99.90;;;;;;5071732;28;20289;-68
2023/09/15 11:28:34;;;;;;;3.87;2.67;;;26.40;99.90;;;;;;5070597;28;20497;-68
2023/09/15 11:31:04;;;;;;;5.03;2.70;;;26.20;99.90;;;;;;5071360;28;20668;-67
2023/09/15 11:33:30;;;;;;;5.53;2.83;;;26.20;99.90;;;;;;5079295;28;20191;-68
2023/09/15 11:36:00;;;;;;;6.60;2.70;;;26.00;99.90;;;;;;5078725;28;20206;-68
2023/09/15 11:38:26;;;;;;;7.57;2.40;;;26.00;99.90;;;;;;5070275;28;20219;-68
2023/09/15 11:40:53;;;;;;;4.20;2.70;;;26.30;99.90;;;;;;5071258;28;20179;-69
2023/09/15 11:43:23;;;;;;;6.40;2.70;;;26.50;99.90;;;;;;5071158;28;20175;-68
2023/09/15 11:45:50;;;;;;;4.20;2.40;;;26.50;99.90;;;;;;5071190;28;20263;-68
2023/09/15 11:48:16;;;;;;;5.47;3.10;;;26.30;99.90;;;;;;5070141;28;20201;-69
2023/09/15 11:50:42;;;;;;;3.17;1.93;;;26.50;99.90;;;;;;5070838;28;20182;-68
2023/09/15 11:53:08;;;;;;;3.80;2.10;;;26.40;99.90;;;;;;5071030;28;20225;-68
2023/09/15 11:55:34;;;;;;;5.37;2.20;;;26.40;99.90;;;;;;5070824;28;20600;-68
2023/09/15 11:58:00;;;;;;;4.37;2.20;;;26.50;99.90;;;;;;5070494;28;20273;-69
2023/09/15 12:00:31;;;;;;;3.50;2.07;;;26.50;99.90;;;;;;5070423;28;20305;-68
2023/09/15 12:02:57;;;;;;;5.00;2.07;;;26.50;99.90;;;;;;5070461;28;20260;-68
2023/09/15 12:05:23;;;;;;;3.27;2.20;;;26.50;99.90;;;;;;5069995;28;20368;-68
2023/09/15 12:07:50;;;;;;;3.23;2.40;;;26.20;99.90;;;;;;5069673;28;20685;-70
2023/09/15 12:10:21;;;;;;;3.30;2.10;;;26.00;99.90;;;;;;5070066;28;20175;-68
2023/09/15 12:12:46;;;;;;;6.00;2.20;;;26.00;99.90;;;;;;5067525;28;20261;-69
2023/09/15 12:15:16;;;;;;;4.50;2.20;;;26.20;99.90;;;;;;5070398;28;20725;-68
2023/09/15 12:17:44;;;;;;;3.27;1.93;;;26.40;99.90;;;;;;5061641;28;20198;-68
2023/09/15 12:20:09;;;;;;;7.10;1.83;;;26.40;99.90;;;;;;5070324;28;20205;-68
2023/09/15 12:22:40;;;;;;;3.30;2.10;;;26.10;99.90;;;;;;5070187;28;20174;-68
2023/09/15 12:25:09;;;;;;;2.60;1.80;;;26.30;99.90;;;;;;5070321;28;20206;-68
2023/09/15 12:27:37;;;;;;;6.00;1.67;;;26.40;99.90;;;;;;5069391;28;20710;-68
2023/09/15 12:30:06;;;;;;;3.23;1.70;;;26.60;99.90;;;;;;5070232;28;20177;-68
2023/09/15 12:32:33;;;;;;;2.57;1.80;;;26.50;99.90;;;;;;5068590;28;20182;-68
2023/09/15 12:34:59;;;;;;;3.00;1.73;;;26.50;99.90;;;;;;5070219;28;20259;-68
2023/09/15 12:37:29;;;;;;;3.00;1.77;;;26.60;99.90;;;;;;5068738;28;20661;-68
2023/09/15 12:39:54;;;;;;;2.70;1.77;;;26.50;99.90;;;;;;5069854;28;20204;-68
2023/09/15 12:42:20;;;;;;;7.27;2.00;;;26.70;99.90;;;;;;5069875;28;20174;-68
2023/09/15 12:44:46;;;;;;;3.23;1.77;;;26.80;99.90;;;;;;5069274;28;20241;-69
2023/09/15 12:47:12;;;;;;;2.47;1.57;;;27.10;99.90;;;;;;5070046;28;20657;-68
2023/09/15 12:49:38;;;;;;;4.30;1.70;;;27.00;99.90;;;;;;5068961;28;20178;-67
2023/09/15 12:52:04;;;;;;;2.77;1.70;;;27.10;99.90;;;;;;5069852;28;20257;-68